createdAt,value
2018-09-12T00:00:22.654Z,7.10
2018-09-12T00:02:50.773Z,8.23
2018-09-12T00:05:18.846Z,7.60
2018-09-12T00:07:46.902Z,7.40
2018-09-12T00:10:14.954Z,7.83
2018-09-12T00:12:43.025Z,7.50
2018-09-12T00:15:11.073Z,7.70
2018-09-12T00:17:39.167Z,7.73
2018-09-12T00:20:07.211Z,8.07
2018-09-12T00:22:35.437Z,8.20
2018-09-12T00:25:03.558Z,7.77
2018-09-12T00:27:31.658Z,7.30
2018-09-12T00:29:59.738Z,7.40
2018-09-12T00:32:27.845Z,7.50
2018-09-12T00:34:55.923Z,7.33
2018-09-12T00:37:23.962Z,7.07
2018-09-12T00:39:52.015Z,7.03
2018-09-12T00:42:20.070Z,7.03
2018-09-12T00:44:48.127Z,7.35
2018-09-12T00:49:43.606Z,7.30
2018-09-12T00:52:11.653Z,7.43
2018-09-12T00:54:39.763Z,7.17
2018-09-12T00:57:08.542Z,7.43
2018-09-12T00:59:36.849Z,7.03
2018-09-12T01:02:04.941Z,7.57
2018-09-12T01:04:33.019Z,6.90
2018-09-12T01:07:01.112Z,6.93
2018-09-12T01:09:29.154Z,7.10
2018-09-12T01:11:57.241Z,6.77
2018-09-12T01:14:29.535Z,6.30
2018-09-12T01:16:57.779Z,7.00
2018-09-12T01:19:25.841Z,6.27
2018-09-12T01:21:53.901Z,6.40
2018-09-12T01:24:21.998Z,7.20
2018-09-12T01:26:50.058Z,6.77
2018-09-12T01:29:18.138Z,7.03
2018-09-12T01:31:46.194Z,6.77
2018-09-12T01:34:14.262Z,6.23
2018-09-12T01:36:42.331Z,7.13
2018-09-12T01:39:10.837Z,7.03
2018-09-12T01:41:38.905Z,6.50
2018-09-12T01:44:07.002Z,6.73
2018-09-12T01:46:35.102Z,7.30
2018-09-12T01:49:03.154Z,6.70
2018-09-12T01:51:31.201Z,6.93
2018-09-12T01:53:59.254Z,7.00
2018-09-12T01:56:27.314Z,6.40
2018-09-12T01:58:55.381Z,7.20
2018-09-12T02:01:23.444Z,6.87
2018-09-12T02:03:51.540Z,7.27
2018-09-12T02:06:19.611Z,8.20
2018-09-12T02:08:47.686Z,7.57
2018-09-12T02:11:15.746Z,6.97
2018-09-12T02:13:43.811Z,7.33
2018-09-12T02:16:11.890Z,7.77
2018-09-12T02:18:39.978Z,7.80
2018-09-12T02:21:08.034Z,7.53
2018-09-12T02:23:36.114Z,7.20
2018-09-12T02:26:04.196Z,7.20
2018-09-12T02:28:32.254Z,6.97
2018-09-12T02:31:00.334Z,7.00
2018-09-12T02:33:28.406Z,7.47
2018-09-12T02:36:01.898Z,7.77
2018-09-12T02:38:29.982Z,8.00
2018-09-12T02:40:58.082Z,7.40
2018-09-12T02:43:26.185Z,8.10
2018-09-12T02:45:54.266Z,8.30
2018-09-12T02:48:22.355Z,7.90
2018-09-12T02:50:50.430Z,7.33
2018-09-12T02:53:18.512Z,7.55
2018-09-12T02:55:46.586Z,7.50
2018-09-12T02:58:14.653Z,9.00
2018-09-12T03:00:42.756Z,7.70
2018-09-12T03:03:10.874Z,8.13
2018-09-12T03:05:38.926Z,7.67
2018-09-12T03:08:07.015Z,8.10
2018-09-12T03:10:35.074Z,7.70
2018-09-12T03:13:03.158Z,8.40
2018-09-12T03:15:31.318Z,8.00
2018-09-12T03:17:59.399Z,7.97
2018-09-12T03:20:27.545Z,7.83
2018-09-12T03:22:55.557Z,7.97
2018-09-12T03:25:23.626Z,7.87
2018-09-12T03:27:51.689Z,8.07
2018-09-12T03:30:19.781Z,7.87
2018-09-12T03:32:47.849Z,7.90
2018-09-12T03:35:15.945Z,6.87
2018-09-12T03:37:44.014Z,7.53
2018-09-12T03:40:12.082Z,7.40
2018-09-12T03:42:40.142Z,7.50
2018-09-12T03:45:08.236Z,7.53
2018-09-12T03:47:36.274Z,7.53
2018-09-12T03:50:04.353Z,7.57
2018-09-12T03:52:32.410Z,7.97
2018-09-12T03:55:00.498Z,7.33
2018-09-12T03:57:28.545Z,8.10
2018-09-12T03:59:56.633Z,7.40
2018-09-12T04:02:24.725Z,7.73
2018-09-12T04:04:52.798Z,7.87
2018-09-12T04:07:20.910Z,7.87
2018-09-12T04:09:48.978Z,7.70
2018-09-12T04:12:17.037Z,8.10
2018-09-12T04:14:45.350Z,7.73
2018-09-12T04:17:13.610Z,8.17
2018-09-12T04:19:41.653Z,7.97
2018-09-12T04:22:09.751Z,7.67
2018-09-12T04:24:37.798Z,8.03
2018-09-12T04:27:05.835Z,8.00
2018-09-12T04:29:34.125Z,8.73
2018-09-12T04:32:02.181Z,8.70
2018-09-12T04:34:30.229Z,8.77
2018-09-12T04:36:58.298Z,8.50
2018-09-12T04:39:26.363Z,8.57
2018-09-12T04:41:54.430Z,8.50
2018-09-12T04:44:22.510Z,8.63
2018-09-12T04:46:50.541Z,8.93
2018-09-12T04:49:18.587Z,8.37
2018-09-12T04:51:46.633Z,8.57
2018-09-12T04:54:14.694Z,9.43
2018-09-12T04:56:42.780Z,8.83
2018-09-12T04:59:10.870Z,8.97
2018-09-12T05:01:38.982Z,8.47
2018-09-12T05:04:07.058Z,8.33
2018-09-12T05:06:35.125Z,8.30
2018-09-12T05:09:03.410Z,7.90
2018-09-12T05:11:31.454Z,8.13
2018-09-12T05:13:59.510Z,7.77
2018-09-12T05:16:27.662Z,7.90
2018-09-12T05:18:55.623Z,8.23
2018-09-12T05:21:24.085Z,7.70
2018-09-12T05:23:52.154Z,8.03
2018-09-12T05:26:20.214Z,7.57
2018-09-12T05:28:48.305Z,8.00
2018-09-12T05:31:16.375Z,7.80
2018-09-12T05:33:44.434Z,7.83
2018-09-12T05:36:12.522Z,7.77
2018-09-12T05:38:40.542Z,8.07
2018-09-12T05:41:08.601Z,10.43
2018-09-12T05:43:36.650Z,9.63
2018-09-12T05:46:05.012Z,9.33
2018-09-12T05:48:33.158Z,9.17
2018-09-12T05:51:01.238Z,8.90
2018-09-12T05:53:29.398Z,7.73
2018-09-12T05:55:57.546Z,9.27
2018-09-12T05:58:25.587Z,8.10
2018-09-12T06:00:53.648Z,8.27
2018-09-12T06:03:21.741Z,8.17
2018-09-12T06:05:49.829Z,8.13
2018-09-12T06:08:17.953Z,8.27
2018-09-12T06:10:46.005Z,8.87
2018-09-12T06:13:14.054Z,8.83
2018-09-12T06:15:42.094Z,8.37
2018-09-12T06:18:10.144Z,8.80
2018-09-12T06:20:38.244Z,8.53
2018-09-12T06:23:06.339Z,9.13
2018-09-12T06:25:34.385Z,9.17
2018-09-12T06:28:02.436Z,9.43
2018-09-12T06:30:30.494Z,9.20
2018-09-12T06:32:58.557Z,8.70
2018-09-12T06:35:26.625Z,8.50
2018-09-12T06:37:54.783Z,8.77
2018-09-12T06:40:22.758Z,7.80
2018-09-12T06:42:50.798Z,8.00
2018-09-12T06:45:18.856Z,8.33
2018-09-12T06:47:46.941Z,8.40
2018-09-12T06:50:15.002Z,7.83
2018-09-12T06:52:43.073Z,7.60
2018-09-12T06:55:11.134Z,8.03
2018-09-12T06:57:39.175Z,7.90
2018-09-12T07:00:08.235Z,7.83
2018-09-12T07:02:36.303Z,7.43
2018-09-12T07:05:04.480Z,7.93
2018-09-12T07:07:32.571Z,7.47
2018-09-12T07:10:00.631Z,7.50
2018-09-12T07:12:28.692Z,7.60
2018-09-12T07:14:56.734Z,7.70
2018-09-12T07:17:24.779Z,7.47
2018-09-12T07:19:52.829Z,7.50
2018-09-12T07:22:20.882Z,7.30
2018-09-12T07:24:49.042Z,6.83
2018-09-12T07:37:06.578Z,7.17
2018-09-12T07:39:34.621Z,7.30
2018-09-12T07:44:30.086Z,7.10
2018-09-12T07:46:58.161Z,6.40
2018-09-12T07:51:53.642Z,6.50
2018-09-12T07:54:21.684Z,6.60
2018-09-12T07:59:17.147Z,6.80
2018-09-12T08:06:40.118Z,6.10
2018-09-12T08:09:09.946Z,6.47
2018-09-12T08:11:38.018Z,6.30
2018-09-12T08:14:06.111Z,5.80
2018-09-12T08:16:34.209Z,6.03
2018-09-12T08:23:57.101Z,5.30
2018-09-12T08:26:25.190Z,5.27
2018-09-12T08:28:53.289Z,5.80
2018-09-12T08:33:48.754Z,5.90
2018-09-12T08:36:16.858Z,5.00
2018-09-12T08:41:12.314Z,5.25
2018-09-12T08:43:40.390Z,5.40
2018-09-12T11:44:21.810Z,2.70
2018-09-12T11:56:39.558Z,2.70
2018-09-12T12:50:43.610Z,2.55
2018-09-12T13:22:40.583Z,2.20
2018-09-12T13:27:36.070Z,2.90
2018-09-12T13:30:04.148Z,2.47
2018-09-12T13:49:46.598Z,2.60
2018-09-12T14:02:04.286Z,2.72
2018-09-12T14:21:44.246Z,3.00
2018-09-12T14:34:01.942Z,2.70
2018-09-12T14:53:41.898Z,2.65
2018-09-12T15:08:27.062Z,2.77
2018-09-12T15:28:06.948Z,2.52
2018-09-12T15:33:02.789Z,2.42
2018-09-12T15:35:30.841Z,3.10
2018-09-12T15:42:53.998Z,2.67
2018-09-12T15:45:22.074Z,2.98
2018-09-12T15:47:50.993Z,3.10
2018-09-12T15:50:19.063Z,2.72
2018-09-12T16:07:31.886Z,3.05
2018-09-12T16:12:27.339Z,2.87
2018-09-12T16:14:55.417Z,2.80
2018-09-12T16:19:50.875Z,3.20
2018-09-12T16:22:18.956Z,2.83
2018-09-12T16:24:47.010Z,3.10
2018-09-12T16:37:04.667Z,3.12
2018-09-12T17:28:41.258Z,4.00
2018-09-12T17:31:09.326Z,5.47
2018-09-12T17:33:37.406Z,4.28
2018-09-12T17:36:05.481Z,5.30
2018-09-12T17:38:33.555Z,4.20
2018-09-12T17:41:01.622Z,4.40
2018-09-12T17:45:57.114Z,4.20
2018-09-12T17:50:52.600Z,4.15
2018-09-12T17:53:20.670Z,4.10
2018-09-12T17:55:48.867Z,4.30
2018-09-12T17:58:16.793Z,4.08
2018-09-12T18:00:44.895Z,4.23
2018-09-12T18:05:40.422Z,4.55
2018-09-12T18:08:08.453Z,4.62
2018-09-12T18:10:36.550Z,4.83
2018-09-12T18:25:21.734Z,4.92
2018-09-12T18:27:49.819Z,5.00
2018-09-12T18:30:17.966Z,4.70
2018-09-12T18:32:46.085Z,4.95
2018-09-12T18:35:14.150Z,4.40
2018-09-12T18:37:42.265Z,4.85
2018-09-12T18:40:10.334Z,4.45
2018-09-12T18:42:38.414Z,4.22
2018-09-12T18:45:06.494Z,5.08
2018-09-12T18:47:34.566Z,5.00
2018-09-12T18:50:02.653Z,4.95
2018-09-12T18:52:30.736Z,5.47
2018-09-12T18:54:58.810Z,4.30
2018-09-12T18:57:26.937Z,4.40
2018-09-12T18:59:55.014Z,3.60
2018-09-12T19:17:07.570Z,5.30
2018-09-12T20:33:18.556Z,4.60
2018-09-12T20:35:46.669Z,3.90
2018-09-12T20:45:37.152Z,4.78
2018-09-12T20:48:05.245Z,4.62
2018-09-12T20:50:33.327Z,4.97
2018-09-12T21:02:51.412Z,5.30
2018-09-12T21:05:19.430Z,5.50
2018-09-12T21:07:47.510Z,4.70
2018-09-12T21:10:15.619Z,5.08
2018-09-12T21:12:43.906Z,5.47
2018-09-12T21:15:12.054Z,5.45
2018-09-12T21:20:08.663Z,4.33
2018-09-12T21:22:36.828Z,4.63
2018-09-12T21:25:04.956Z,4.40
2018-09-12T21:27:33.058Z,5.25
2018-09-12T21:30:01.127Z,5.00
2018-09-12T21:32:29.194Z,4.75
2018-09-12T21:34:57.366Z,4.90
2018-09-12T21:37:25.446Z,4.37
2018-09-12T21:39:53.562Z,5.10
2018-09-12T21:42:21.661Z,4.95
2018-09-12T21:44:49.782Z,4.50
2018-09-12T21:47:17.962Z,4.53
2018-09-12T21:49:46.091Z,4.50
2018-09-12T21:52:14.169Z,5.00
2018-09-12T21:54:42.314Z,5.30
2018-09-12T21:57:10.465Z,5.77
2018-09-12T22:01:03.205Z,6.10
2018-09-12T22:03:31.319Z,6.30
2018-09-12T22:05:59.481Z,6.83
2018-09-12T22:08:27.641Z,6.27
2018-09-12T22:10:55.730Z,7.17
2018-09-12T22:13:23.806Z,6.87
2018-09-12T22:15:51.881Z,7.60
2018-09-12T22:18:19.957Z,8.40
2018-09-12T22:20:48.057Z,8.03
2018-09-12T22:23:16.190Z,7.33
2018-09-12T22:25:44.245Z,7.03
2018-09-12T22:28:12.317Z,7.67
2018-09-12T22:30:40.431Z,7.70
2018-09-12T22:33:08.496Z,7.57
2018-09-12T22:35:36.578Z,8.20
2018-09-12T22:38:04.667Z,8.40
2018-09-12T22:40:32.741Z,8.50
2018-09-12T22:43:00.897Z,7.60
2018-09-12T22:45:28.986Z,8.50
2018-09-12T22:47:57.057Z,8.63
2018-09-12T22:50:25.130Z,9.37
2018-09-12T22:52:53.205Z,8.10
2018-09-12T22:55:21.303Z,8.73
2018-09-12T22:57:49.370Z,8.93
2018-09-12T23:00:17.481Z,8.17
2018-09-12T23:02:45.493Z,8.63
2018-09-12T23:05:13.614Z,8.53
2018-09-12T23:07:41.673Z,9.00
2018-09-12T23:10:09.766Z,8.57
2018-09-12T23:12:37.838Z,9.30
2018-09-12T23:15:05.927Z,9.20
2018-09-12T23:17:34.026Z,8.70
2018-09-12T23:20:02.097Z,8.23
2018-09-12T23:22:30.173Z,8.33
2018-09-12T23:24:58.279Z,8.20
2018-09-12T23:27:26.345Z,8.90
2018-09-12T23:29:54.445Z,9.27
2018-09-12T23:32:22.515Z,9.00
2018-09-12T23:34:50.586Z,9.30
2018-09-12T23:37:18.667Z,9.17
2018-09-12T23:39:46.749Z,8.73
2018-09-12T23:42:14.827Z,8.37
2018-09-12T23:44:42.902Z,9.77
2018-09-12T23:47:10.986Z,9.30
2018-09-12T23:49:39.063Z,9.13
2018-09-12T23:52:07.154Z,9.10
2018-09-12T23:54:35.226Z,9.13
2018-09-12T23:57:03.331Z,9.23
2018-09-12T23:59:31.401Z,8.87
